createdAt,value
2019-01-02T00:00:34.377Z,2.67
2019-01-02T00:03:04.780Z,3.67
2019-01-02T00:05:35.637Z,3.30
2019-01-02T00:08:06.705Z,3.10
2019-01-02T00:10:37.608Z,2.47
2019-01-02T00:13:08.952Z,2.52
2019-01-02T00:15:39.632Z,2.37
2019-01-02T00:18:10.213Z,2.97
2019-01-02T00:20:40.835Z,2.70
2019-01-02T00:23:11.757Z,3.10
2019-01-02T00:25:43.847Z,2.52
2019-01-02T00:28:15.189Z,2.50
2019-01-02T00:30:45.730Z,2.10
2019-01-02T00:33:16.471Z,3.40
2019-01-02T00:35:47.219Z,2.37
2019-01-02T00:38:17.625Z,2.90
2019-01-02T00:40:48.763Z,3.70
2019-01-02T00:43:19.624Z,2.70
2019-01-02T00:45:50.570Z,2.77
2019-01-02T00:48:20.963Z,2.77
2019-01-02T00:50:51.859Z,2.77
2019-01-02T00:53:22.521Z,3.27
2019-01-02T00:55:53.601Z,3.58
2019-01-02T00:58:23.964Z,2.60
2019-01-02T01:00:54.748Z,3.63
2019-01-02T01:03:25.476Z,2.52
2019-01-02T01:05:56.444Z,3.55
2019-01-02T01:08:26.986Z,2.40
2019-01-02T01:10:57.630Z,2.60
2019-01-02T01:13:28.355Z,2.43
2019-01-02T01:15:59.787Z,2.93
2019-01-02T01:18:30.634Z,3.13
2019-01-02T01:21:03.737Z,2.93
2019-01-02T01:23:34.388Z,2.77
2019-01-02T01:26:05.124Z,3.27
2019-01-02T01:28:37.268Z,3.47
2019-01-02T01:31:07.666Z,3.10
2019-01-02T01:33:38.505Z,3.05
2019-01-02T01:36:09.771Z,2.90
2019-01-02T01:38:40.888Z,3.45
2019-01-02T01:41:11.598Z,3.55
2019-01-02T01:43:42.595Z,2.85
2019-01-02T01:46:13.441Z,2.43
2019-01-02T01:48:44.864Z,3.42
2019-01-02T01:51:15.516Z,2.60
2019-01-02T01:53:46.284Z,3.27
2019-01-02T01:56:17.294Z,2.80
2019-01-02T01:58:48.304Z,3.37
2019-01-02T02:01:18.652Z,4.30
2019-01-02T02:03:49.467Z,3.47
2019-01-02T02:06:19.888Z,3.03
2019-01-02T02:08:50.884Z,3.53
2019-01-02T02:11:21.674Z,2.70
2019-01-02T02:13:52.020Z,3.47
2019-01-02T02:16:24.385Z,3.77
2019-01-02T02:18:54.891Z,3.50
2019-01-02T02:21:25.570Z,3.02
2019-01-02T02:23:57.051Z,4.25
2019-01-02T02:26:28.091Z,3.20
2019-01-02T02:28:58.890Z,3.50
2019-01-02T02:31:29.630Z,2.97
2019-01-02T02:34:00.509Z,3.70
2019-01-02T02:36:31.640Z,4.23
2019-01-02T02:39:02.687Z,2.90
2019-01-02T02:41:33.470Z,3.23
2019-01-02T02:44:04.519Z,3.02
2019-01-02T02:46:35.498Z,4.67
2019-01-02T02:49:06.285Z,4.23
2019-01-02T02:51:37.593Z,3.50
2019-01-02T02:54:08.516Z,3.77
2019-01-02T02:56:40.011Z,3.97
2019-01-02T02:59:10.914Z,3.83
2019-01-02T03:01:41.827Z,4.07
2019-01-02T03:04:12.920Z,3.80
2019-01-02T03:06:45.912Z,3.57
2019-01-02T03:09:16.420Z,4.10
2019-01-02T03:11:46.839Z,3.93
2019-01-02T03:14:17.435Z,4.40
2019-01-02T03:16:48.585Z,3.57
2019-01-02T03:19:19.579Z,5.00
2019-01-02T03:21:50.149Z,3.95
2019-01-02T03:24:20.832Z,4.37
2019-01-02T03:26:51.475Z,4.00
2019-01-02T03:29:22.082Z,4.03
2019-01-02T03:31:54.123Z,3.70
2019-01-02T03:34:25.247Z,3.70
2019-01-02T03:36:56.034Z,3.60
2019-01-02T03:39:26.623Z,3.63
2019-01-02T03:41:57.088Z,2.90
2019-01-02T03:44:27.499Z,3.67
2019-01-02T03:46:58.159Z,3.70
2019-01-02T03:49:30.211Z,4.17
2019-01-02T03:52:00.585Z,4.20
2019-01-02T03:54:31.063Z,3.83
2019-01-02T03:57:01.756Z,3.20
2019-01-02T03:59:32.462Z,2.98
2019-01-02T04:02:02.883Z,3.73
2019-01-02T04:04:33.540Z,3.70
2019-01-02T04:07:03.995Z,3.00
2019-01-02T04:09:34.524Z,3.53
2019-01-02T04:12:04.845Z,3.30
2019-01-02T04:14:35.571Z,4.00
2019-01-02T04:17:05.918Z,3.40
2019-01-02T04:19:36.838Z,3.40
2019-01-02T04:22:08.488Z,3.50
2019-01-02T04:24:38.835Z,3.70
2019-01-02T04:27:10.594Z,3.98
2019-01-02T04:29:40.999Z,3.63
2019-01-02T04:32:11.651Z,3.27
2019-01-02T04:34:42.003Z,3.63
2019-01-02T04:37:12.674Z,3.00
2019-01-02T04:39:43.361Z,3.37
2019-01-02T04:42:13.834Z,3.37
2019-01-02T04:44:44.919Z,4.00
2019-01-02T04:47:15.485Z,3.07
2019-01-02T04:49:45.857Z,4.17
2019-01-02T04:52:16.519Z,3.50
2019-01-02T04:54:46.871Z,3.57
2019-01-02T04:57:17.610Z,3.07
2019-01-02T04:59:47.929Z,3.83
2019-01-02T05:02:18.657Z,3.80
2019-01-02T05:04:49.848Z,3.50
2019-01-02T05:07:20.496Z,3.30
2019-01-02T05:09:51.058Z,3.90
2019-01-02T05:12:21.737Z,3.47
2019-01-02T05:14:52.378Z,3.87
2019-01-02T05:17:22.800Z,3.63
2019-01-02T05:19:53.504Z,3.95
2019-01-02T05:22:24.360Z,3.90
2019-01-02T05:24:54.699Z,3.63
2019-01-02T05:27:25.333Z,3.58
2019-01-02T05:29:55.751Z,3.73
2019-01-02T05:32:26.403Z,4.40
2019-01-02T05:34:56.896Z,3.77
2019-01-02T05:37:27.552Z,3.42
2019-01-02T05:39:57.953Z,4.47
2019-01-02T05:42:28.650Z,3.70
2019-01-02T05:44:59.385Z,3.58
2019-01-02T05:47:30.847Z,3.40
2019-01-02T05:50:01.497Z,3.93
2019-01-02T05:52:31.838Z,3.97
2019-01-02T05:55:02.531Z,4.35
2019-01-02T05:57:32.912Z,3.70
2019-01-02T06:00:04.071Z,3.63
2019-01-02T06:02:34.524Z,3.53
2019-01-02T06:05:04.995Z,3.77
2019-01-02T06:07:35.598Z,3.93
2019-01-02T06:10:06.926Z,3.40
2019-01-02T06:12:37.627Z,3.40
2019-01-02T06:15:09.692Z,3.47
2019-01-02T06:17:40.443Z,3.27
2019-01-02T06:20:13.259Z,3.80
2019-01-02T06:22:47.807Z,3.52
2019-01-02T06:25:19.520Z,3.27
2019-01-02T06:27:50.047Z,4.10
2019-01-02T06:30:20.500Z,3.57
2019-01-02T06:32:51.422Z,3.57
2019-01-02T06:35:21.990Z,3.80
2019-01-02T06:37:52.612Z,3.72
2019-01-02T06:40:23.507Z,3.50
2019-01-02T06:42:53.989Z,3.00
2019-01-02T06:45:26.512Z,3.23
2019-01-02T06:47:59.466Z,2.83
2019-01-02T06:50:29.819Z,3.43
2019-01-02T06:53:00.641Z,3.20
2019-01-02T06:55:31.004Z,3.63
2019-01-02T06:58:01.780Z,3.70
2019-01-02T07:00:38.526Z,3.22
2019-01-02T07:03:08.926Z,3.10
2019-01-02T07:05:39.743Z,3.62
2019-01-02T07:08:10.426Z,3.35
2019-01-02T07:10:40.796Z,3.30
2019-01-02T07:13:11.560Z,3.10
2019-01-02T07:15:41.936Z,3.17
2019-01-02T07:18:12.750Z,2.52
2019-01-02T07:20:43.454Z,2.60
2019-01-02T07:23:13.880Z,2.90
2019-01-02T07:25:44.579Z,3.37
2019-01-02T07:28:14.900Z,2.77
2019-01-02T07:30:45.812Z,3.20
2019-01-02T07:33:16.537Z,3.10
2019-01-02T07:36:07.466Z,3.33
2019-01-02T07:39:21.877Z,3.22
2019-01-02T07:42:48.114Z,3.13
2019-01-02T07:45:45.754Z,2.77
2019-01-02T07:49:27.473Z,2.83
2019-01-02T07:52:39.387Z,2.72
2019-01-02T07:55:42.772Z,2.93
2019-01-02T07:59:06.347Z,3.05
2019-01-02T08:02:16.570Z,3.20
2019-01-02T08:05:25.503Z,2.63
2019-01-02T08:08:36.911Z,3.03
2019-01-02T08:11:51.515Z,2.87
2019-01-02T08:15:03.244Z,3.23
2019-01-02T08:18:17.059Z,3.73
2019-01-02T08:21:34.238Z,3.10
2019-01-02T08:24:59.587Z,3.03
2019-01-02T08:28:16.482Z,3.02
2019-01-02T08:31:17.934Z,2.73
2019-01-02T08:34:30.358Z,2.73
2019-01-02T08:37:32.159Z,2.90
2019-01-02T08:40:19.924Z,2.80
2019-01-02T08:43:18.261Z,2.30
2019-01-02T08:46:20.526Z,2.03
2019-01-02T08:49:37.741Z,2.33
2019-01-02T08:53:01.159Z,2.22
2019-01-02T08:56:20.390Z,1.90
2019-01-02T08:59:26.844Z,2.10
2019-01-02T09:02:36.733Z,2.10
2019-01-02T09:05:25.144Z,2.47
2019-01-02T09:08:32.078Z,2.10
2019-01-02T09:11:34.829Z,2.33
2019-01-02T09:14:31.524Z,3.60
2019-01-02T09:17:54.953Z,3.30
2019-01-02T09:20:58.986Z,3.05
2019-01-02T09:24:08.480Z,3.10
2019-01-02T09:27:14.426Z,2.50
2019-01-02T09:30:20.887Z,2.73
2019-01-02T09:33:20.958Z,2.37
2019-01-02T09:36:37.551Z,3.33
2019-01-02T09:39:50.120Z,3.97
2019-01-02T09:43:07.150Z,3.73
2019-01-02T09:46:20.421Z,4.10
2019-01-02T09:49:20.018Z,5.33
2019-01-02T09:52:26.944Z,3.90
2019-01-02T09:55:45.850Z,5.47
2019-01-02T09:59:05.708Z,5.37
2019-01-02T10:02:06.903Z,4.55
2019-01-02T10:05:15.235Z,4.10
2019-01-02T10:08:26.225Z,4.83
2019-01-02T10:11:22.609Z,4.20
2019-01-02T10:14:38.141Z,4.63
2019-01-02T10:17:39.258Z,4.43
2019-01-02T10:20:24.094Z,5.50
2019-01-02T10:23:35.819Z,5.10
2019-01-02T10:26:36.660Z,6.08
2019-01-02T10:29:23.082Z,4.45
2019-01-02T10:32:33.710Z,4.40
2019-01-02T10:35:31.471Z,4.10
2019-01-02T10:38:36.347Z,3.80
2019-01-02T10:41:47.587Z,4.17
2019-01-02T10:45:13.595Z,5.20
2019-01-02T10:48:39.774Z,3.58
2019-01-02T10:51:34.063Z,2.98
2019-01-02T10:54:43.911Z,4.13
2019-01-02T10:57:59.135Z,4.08
2019-01-02T11:01:37.569Z,6.03
2019-01-02T11:04:43.005Z,4.20
2019-01-02T11:07:34.152Z,4.60
2019-01-02T11:10:51.365Z,4.83
2019-01-02T11:14:02.444Z,4.60
2019-01-02T11:17:08.666Z,3.30
2019-01-02T11:20:38.177Z,4.42
2019-01-02T11:23:41.084Z,11.10
2019-01-02T11:26:55.149Z,3.13
2019-01-02T11:30:08.643Z,3.63
2019-01-02T11:33:34.639Z,4.15
2019-01-02T11:36:37.110Z,3.57
2019-01-02T11:39:38.240Z,3.30
2019-01-02T11:42:37.260Z,3.50
2019-01-02T11:45:05.935Z,3.10
2019-01-02T11:47:36.508Z,3.00
2019-01-02T11:50:11.383Z,3.63
2019-01-02T11:52:42.005Z,3.57
2019-01-02T11:55:12.654Z,3.77
2019-01-02T11:57:43.317Z,3.90
2019-01-02T12:00:17.787Z,2.70
2019-01-02T12:02:48.561Z,3.23
2019-01-02T12:05:19.102Z,3.33
2019-01-02T12:07:51.295Z,4.28
2019-01-02T12:10:22.361Z,3.40
2019-01-02T12:12:52.838Z,3.53
2019-01-02T12:15:23.646Z,3.97
2019-01-02T12:17:56.382Z,4.15
2019-01-02T12:20:27.773Z,3.23
2019-01-02T12:22:58.577Z,4.20
2019-01-02T12:25:29.048Z,3.27
2019-01-02T12:27:59.754Z,12.43
2019-01-02T12:30:30.662Z,6.20
2019-01-02T12:33:01.333Z,13.90
2019-01-02T12:35:31.713Z,3.80
2019-01-02T12:38:02.582Z,7.55
2019-01-02T12:40:32.931Z,4.40
2019-01-02T12:43:03.512Z,4.27
2019-01-02T12:45:33.999Z,4.03
2019-01-02T12:48:04.505Z,3.90
2019-01-02T12:50:34.854Z,6.10
2019-01-02T12:53:05.713Z,3.17
2019-01-02T12:55:36.353Z,10.10
2019-01-02T12:58:06.766Z,3.77
2019-01-02T13:01:00.084Z,4.00
2019-01-02T13:04:38.419Z,4.17
2019-01-02T13:07:52.012Z,3.40
2019-01-02T13:10:52.267Z,3.43
2019-01-02T13:13:52.308Z,2.70
2019-01-02T13:16:51.755Z,4.40
2019-01-02T13:19:57.499Z,3.90
2019-01-02T13:22:59.102Z,3.40
2019-01-02T13:25:47.076Z,3.17
2019-01-02T13:28:42.991Z,5.53
2019-01-02T13:32:12.369Z,4.17
2019-01-02T13:35:20.444Z,2.20
2019-01-02T13:38:29.223Z,3.50
2019-01-02T13:41:55.461Z,2.70
2019-01-02T13:44:51.818Z,3.70
2019-01-02T13:48:08.749Z,4.00
2019-01-02T13:50:57.110Z,4.28
2019-01-02T13:53:27.752Z,5.00
2019-01-02T13:55:58.528Z,4.10
2019-01-02T13:58:29.186Z,3.98
2019-01-02T14:00:59.819Z,3.00
2019-01-02T14:03:30.490Z,3.40
2019-01-02T14:06:00.994Z,2.93
2019-01-02T14:08:31.462Z,4.23
2019-01-02T14:11:01.887Z,2.30
2019-01-02T14:13:32.722Z,2.77
2019-01-02T14:16:03.655Z,1.87
2019-01-02T14:18:34.310Z,2.92
2019-01-02T14:21:05.400Z,4.70
2019-01-02T14:23:35.750Z,4.20
2019-01-02T14:26:06.453Z,2.62
2019-01-02T14:28:36.889Z,3.63
2019-01-02T14:31:07.537Z,4.10
2019-01-02T14:33:38.404Z,3.50
2019-01-02T14:36:09.007Z,6.73
2019-01-02T14:38:39.689Z,4.93
2019-01-02T14:41:10.492Z,4.03
2019-01-02T14:43:40.942Z,4.50
2019-01-02T14:46:11.567Z,3.80
2019-01-02T14:48:41.875Z,3.60
2019-01-02T14:51:12.605Z,4.90
2019-01-02T14:53:42.970Z,4.00
2019-01-02T14:56:13.732Z,4.70
2019-01-02T14:58:44.479Z,4.05
2019-01-02T15:01:14.841Z,3.57
2019-01-02T15:03:45.396Z,3.47
2019-01-02T15:06:16.972Z,7.23
2019-01-02T15:08:47.548Z,2.75
2019-01-02T15:11:20.552Z,3.50
2019-01-02T15:13:51.224Z,2.97
2019-01-02T15:16:21.796Z,4.83
2019-01-02T15:18:53.199Z,6.47
2019-01-02T15:21:23.672Z,3.43
2019-01-02T15:23:54.222Z,3.90
2019-01-02T15:26:25.177Z,3.63
2019-01-02T15:28:56.009Z,3.53
2019-01-02T15:31:26.689Z,3.52
2019-01-02T15:33:59.692Z,3.50
2019-01-02T15:36:30.592Z,3.92
2019-01-02T15:39:00.990Z,5.63
2019-01-02T15:41:33.127Z,4.40
2019-01-02T15:44:03.642Z,3.07
2019-01-02T15:46:33.993Z,3.33
2019-01-02T15:49:05.124Z,5.00
2019-01-02T15:51:37.521Z,5.67
2019-01-02T15:54:10.491Z,3.00
2019-01-02T15:56:42.229Z,4.87
2019-01-02T15:59:14.074Z,4.57
2019-01-02T16:01:45.981Z,2.90
2019-01-02T16:04:21.240Z,3.57
2019-01-02T16:06:52.621Z,3.77
2019-01-02T16:09:24.120Z,4.47
2019-01-02T16:11:55.593Z,4.70
2019-01-02T16:14:27.313Z,3.90
2019-01-02T16:17:00.938Z,3.20
2019-01-02T16:19:32.061Z,3.63
2019-01-02T16:22:04.102Z,3.50
2019-01-02T16:24:39.860Z,4.10
2019-01-02T16:27:12.315Z,2.77
2019-01-02T16:29:42.847Z,2.73
2019-01-02T16:32:13.497Z,4.53
2019-01-02T16:34:46.148Z,2.90
2019-01-02T16:37:20.523Z,2.00
2019-01-02T16:39:51.198Z,3.97
2019-01-02T16:42:21.520Z,3.10
2019-01-02T16:44:51.994Z,2.93
2019-01-02T16:47:22.481Z,4.10
2019-01-02T16:49:52.977Z,3.50
2019-01-02T16:52:23.618Z,3.40
2019-01-02T16:54:54.262Z,3.10
2019-01-02T16:57:24.589Z,2.93
2019-01-02T16:59:55.076Z,2.67
2019-01-02T17:02:25.482Z,3.17
2019-01-02T17:04:55.833Z,3.03
2019-01-02T17:07:26.571Z,2.80
2019-01-02T17:09:56.998Z,2.33
2019-01-02T17:12:27.811Z,3.37
2019-01-02T17:14:58.552Z,3.27
2019-01-02T17:17:29.031Z,3.87
2019-01-02T17:20:00.481Z,4.03
2019-01-02T17:22:31.058Z,3.17
2019-01-02T17:25:01.606Z,2.30
2019-01-02T17:27:32.003Z,2.40
2019-01-02T17:30:02.873Z,3.73
2019-01-02T17:32:33.855Z,3.00
2019-01-02T17:35:04.534Z,6.73
2019-01-02T17:37:35.046Z,4.77
2019-01-02T17:40:06.319Z,3.27
2019-01-02T17:42:36.784Z,3.47
2019-01-02T17:45:09.005Z,2.52
2019-01-02T17:47:39.731Z,2.95
2019-01-02T17:50:12.189Z,3.40
2019-01-02T17:52:42.654Z,3.10
2019-01-02T17:55:14.438Z,3.70
2019-01-02T17:57:44.825Z,3.60
2019-01-02T18:00:15.609Z,3.47
2019-01-02T18:02:45.955Z,3.70
2019-01-02T18:05:16.436Z,3.80
2019-01-02T18:07:48.222Z,4.80
2019-01-02T18:10:23.208Z,3.57
2019-01-02T18:12:54.227Z,2.97
2019-01-02T18:15:30.910Z,2.90
2019-01-02T18:18:01.553Z,2.30
2019-01-02T18:20:39.348Z,2.37
2019-01-02T18:23:12.124Z,2.10
2019-01-02T18:25:42.837Z,2.30
2019-01-02T18:28:14.547Z,2.08
2019-01-02T18:30:47.418Z,1.70
2019-01-02T18:33:17.966Z,2.60
2019-01-02T18:35:50.263Z,2.27
2019-01-02T18:38:20.795Z,2.37
2019-01-02T18:40:51.468Z,2.20
2019-01-02T18:43:21.793Z,2.50
2019-01-02T18:45:52.582Z,2.20
2019-01-02T18:48:22.926Z,2.47
2019-01-02T18:50:53.489Z,2.20
2019-01-02T18:53:23.972Z,2.30
2019-01-02T18:55:54.457Z,3.23
2019-01-02T18:58:24.822Z,3.47
2019-01-02T19:00:55.635Z,2.75
2019-01-02T19:03:26.304Z,3.17
2019-01-02T19:05:56.667Z,3.00
2019-01-02T19:08:27.452Z,4.08
2019-01-02T19:10:57.787Z,2.60
2019-01-02T19:13:28.522Z,3.12
2019-01-02T19:15:59.021Z,2.90
2019-01-02T19:18:29.825Z,2.47
2019-01-02T19:21:00.496Z,2.92
2019-01-02T19:23:30.953Z,2.50
2019-01-02T19:26:01.527Z,3.20
2019-01-02T19:28:31.897Z,3.00
2019-01-02T19:31:02.703Z,3.13
2019-01-02T19:33:33.079Z,3.03
2019-01-02T19:36:03.567Z,2.90
2019-01-02T19:38:34.027Z,2.67
2019-01-02T19:41:04.709Z,3.40
2019-01-02T19:43:36.417Z,3.00
2019-01-02T19:46:06.904Z,3.00
2019-01-02T19:48:37.642Z,2.87
2019-01-02T19:51:08.288Z,3.10
2019-01-02T19:53:38.706Z,2.97
2019-01-02T19:56:09.416Z,3.10
2019-01-02T19:58:39.792Z,2.77
2019-01-02T20:01:10.676Z,6.53
2019-01-02T20:03:41.403Z,23.30
2019-01-02T20:06:11.761Z,19.13
2019-01-02T20:08:42.557Z,33.27
2019-01-02T20:11:12.929Z,38.87
2019-01-02T20:13:43.553Z,11.25
2019-01-02T20:16:14.133Z,6.10
2019-01-02T20:18:44.731Z,3.83
2019-01-02T20:21:15.380Z,3.42
2019-01-02T20:23:45.893Z,3.77
2019-01-02T20:26:16.560Z,4.00
2019-01-02T20:28:46.926Z,4.17
2019-01-02T20:31:17.755Z,4.50
2019-01-02T20:33:48.396Z,2.90
2019-01-02T20:36:18.751Z,3.10
2019-01-02T20:38:49.744Z,2.93
2019-01-02T20:41:20.440Z,3.60
2019-01-02T20:43:50.798Z,2.30
2019-01-02T20:46:21.562Z,3.43
2019-01-02T20:48:52.113Z,2.80
2019-01-02T20:51:22.843Z,2.37
2019-01-02T20:53:53.713Z,2.60
2019-01-02T20:56:24.409Z,4.37
2019-01-02T20:58:54.762Z,12.20
2019-01-02T21:01:25.996Z,6.10
2019-01-02T21:03:56.864Z,5.70
2019-01-02T21:06:27.514Z,2.57
2019-01-02T21:08:58.398Z,2.30
2019-01-02T21:11:28.761Z,2.87
2019-01-02T21:13:59.418Z,2.67
2019-01-02T21:16:30.423Z,2.23
2019-01-02T21:19:00.915Z,3.37
2019-01-02T21:21:40.431Z,2.47
2019-01-02T21:24:11.907Z,2.97
2019-01-02T21:26:42.740Z,2.63
2019-01-02T21:29:13.426Z,3.02
2019-01-02T21:31:43.874Z,2.60
2019-01-02T21:34:14.558Z,3.00
2019-01-02T21:36:44.896Z,3.37
2019-01-02T21:39:15.644Z,3.47
2019-01-02T21:41:46.301Z,2.95
2019-01-02T21:44:16.716Z,3.30
2019-01-02T21:46:47.928Z,2.70
2019-01-02T21:49:18.469Z,2.87
2019-01-02T21:51:48.924Z,2.97
2019-01-02T21:54:19.536Z,2.37
2019-01-02T21:56:49.888Z,3.40
2019-01-02T21:59:20.747Z,2.70
2019-01-02T22:01:51.443Z,2.80
2019-01-02T22:04:21.846Z,2.90
2019-01-02T22:06:54.028Z,3.15
2019-01-02T22:09:24.492Z,3.33
2019-01-02T22:11:54.869Z,2.93
2019-01-02T22:14:25.556Z,3.30
2019-01-02T22:16:55.942Z,3.40
2019-01-02T22:19:26.600Z,2.92
2019-01-02T22:21:57.021Z,3.07
2019-01-02T22:24:27.734Z,2.63
2019-01-02T22:26:58.411Z,2.87
2019-01-02T22:29:28.858Z,2.80
2019-01-02T22:31:59.674Z,2.90
2019-01-02T22:34:30.354Z,3.00
2019-01-02T22:37:00.881Z,3.47
2019-01-02T22:39:31.432Z,2.90
2019-01-02T22:42:01.918Z,2.93
2019-01-02T22:44:32.667Z,3.07
2019-01-02T22:47:04.372Z,3.10
2019-01-02T22:49:36.086Z,2.83
2019-01-02T22:52:06.520Z,2.67
2019-01-02T22:54:36.894Z,2.60
2019-01-02T22:57:08.834Z,2.97
2019-01-02T22:59:39.594Z,2.72
2019-01-02T23:02:27.514Z,2.27
2019-01-02T23:05:19.312Z,2.20
2019-01-02T23:08:17.169Z,4.43
2019-01-02T23:11:06.879Z,2.75
2019-01-02T23:14:03.959Z,3.80
2019-01-02T23:16:52.291Z,8.78
2019-01-02T23:19:54.054Z,6.00
2019-01-02T23:22:41.982Z,2.40
2019-01-02T23:25:29.829Z,2.10
2019-01-02T23:28:37.731Z,2.13
2019-01-02T23:31:27.203Z,2.02
2019-01-02T23:34:16.361Z,1.98
2019-01-02T23:37:04.061Z,2.90
2019-01-02T23:40:02.380Z,2.30
2019-01-02T23:43:02.919Z,2.20
2019-01-02T23:45:51.137Z,2.37
2019-01-02T23:49:05.923Z,2.00
2019-01-02T23:52:05.239Z,2.10
2019-01-02T23:55:05.547Z,2.30
2019-01-02T23:57:53.513Z,2.23
